sensor_id;sensor_type;location;lat;lon;timestamp;pressure;altitude;pressure_sealevel;temperature;humidity
27429;BME280;14881;48.092;11.574;2023-04-06T00:01:08;95676.09;;;-3.58;100.00
27429;BME280;14881;48.092;11.574;2023-04-06T00:03:36;95672.81;;;-3.60;100.00
27429;BME280;14881;48.092;11.574;2023-04-06T00:06:05;95669.94;;;-3.65;100.00
27429;BME280;14881;48.092;11.574;2023-04-06T00:08:34;95674.44;;;-3.66;100.00
27429;BME280;14881;48.092;11.574;2023-04-06T00:11:02;95667.09;;;-3.64;100.00
27429;BME280;14881;48.092;11.574;2023-04-06T00:13:30;95669.75;;;-3.64;100.00
27429;BME280;14881;48.092;11.574;2023-04-06T00:15:57;95658.72;;;-3.67;100.00
27429;BME280;14881;48.092;11.574;2023-04-06T00:18:25;95662.78;;;-3.71;100.00
27429;BME280;14881;48.092;11.574;2023-04-06T00:20:53;95665.38;;;-3.84;100.00
27429;BME280;14881;48.092;11.574;2023-04-06T00:23:22;95672.50;;;-3.85;100.00
27429;BME280;14881;48.092;11.574;2023-04-06T00:25:51;95661.66;;;-3.90;100.00
27429;BME280;14881;48.092;11.574;2023-04-06T00:28:18;95670.63;;;-3.91;100.00
27429;BME280;14881;48.092;11.574;2023-04-06T00:30:51;95662.91;;;-3.86;100.00
27429;BME280;14881;48.092;11.574;2023-04-06T00:33:22;95671.88;;;-3.87;100.00
27429;BME280;14881;48.092;11.574;2023-04-06T00:35:50;95671.44;;;-3.91;100.00
27429;BME280;14881;48.092;11.574;2023-04-06T00:38:18;95664.06;;;-3.95;100.00
27429;BME280;14881;48.092;11.574;2023-04-06T00:40:46;95668.75;;;-3.97;100.00
27429;BME280;14881;48.092;11.574;2023-04-06T00:43:15;95671.38;;;-4.04;100.00
27429;BME280;14881;48.092;11.574;2023-04-06T00:45:43;95664.44;;;-4.05;100.00
27429;BME280;14881;48.092;11.574;2023-04-06T00:48:11;95659.06;;;-4.18;100.00
27429;BME280;14881;48.092;11.574;2023-04-06T00:50:39;95665.88;;;-4.30;100.00
27429;BME280;14881;48.092;11.574;2023-04-06T00:53:07;95666.69;;;-4.30;100.00
27429;BME280;14881;48.092;11.574;2023-04-06T00:55:35;95666.44;;;-4.41;100.00
27429;BME280;14881;48.092;11.574;2023-04-06T00:58:03;95661.13;;;-4.41;100.00
27429;BME280;14881;48.092;11.574;2023-04-06T01:00:33;95664.22;;;-4.38;100.00
27429;BME280;14881;48.092;11.574;2023-04-06T01:03:01;95664.97;;;-4.44;100.00
27429;BME280;14881;48.092;11.574;2023-04-06T01:05:29;95666.53;;;-4.56;100.00
27429;BME280;14881;48.092;11.574;2023-04-06T01:07:57;95651.88;;;-4.52;100.00
27429;BME280;14881;48.092;11.574;2023-04-06T01:10:26;95671.84;;;-4.49;100.00
27429;BME280;14881;48.092;11.574;2023-04-06T01:12:55;95667.25;;;-4.41;100.00
27429;BME280;14881;48.092;11.574;2023-04-06T01:15:23;95664.53;;;-4.47;100.00
27429;BME280;14881;48.092;11.574;2023-04-06T01:17:52;95667.25;;;-4.41;100.00
27429;BME280;14881;48.092;11.574;2023-04-06T01:20:21;95667.63;;;-4.44;100.00
27429;BME280;14881;48.092;11.574;2023-04-06T01:22:50;95669.47;;;-4.44;100.00
27429;BME280;14881;48.092;11.574;2023-04-06T01:25:18;95658.84;;;-4.44;100.00
27429;BME280;14881;48.092;11.574;2023-04-06T01:27:45;95665.34;;;-4.47;100.00
27429;BME280;14881;48.092;11.574;2023-04-06T01:30:13;95658.03;;;-4.45;100.00
27429;BME280;14881;48.092;11.574;2023-04-06T01:32:44;95648.22;;;-4.51;100.00
27429;BME280;14881;48.092;11.574;2023-04-06T01:35:12;95657.41;;;-4.47;100.00
27429;BME280;14881;48.092;11.574;2023-04-06T01:37:40;95649.44;;;-4.47;100.00
27429;BME280;14881;48.092;11.574;2023-04-06T01:40:10;95655.75;;;-4.48;100.00
27429;BME280;14881;48.092;11.574;2023-04-06T01:42:38;95651.69;;;-4.50;100.00
27429;BME280;14881;48.092;11.574;2023-04-06T01:45:07;95648.22;;;-4.51;100.00
27429;BME280;14881;48.092;11.574;2023-04-06T01:47:35;95652.06;;;-4.53;100.00
27429;BME280;14881;48.092;11.574;2023-04-06T01:50:03;95638.75;;;-4.60;100.00
27429;BME280;14881;48.092;11.574;2023-04-06T01:52:32;95647.91;;;-4.63;100.00
27429;BME280;14881;48.092;11.574;2023-04-06T01:55:00;95652.56;;;-4.65;100.00
27429;BME280;14881;48.092;11.574;2023-04-06T01:57:29;95647.69;;;-4.68;100.00
27429;BME280;14881;48.092;11.574;2023-04-06T01:59:57;95643.44;;;-4.62;100.00
27429;BME280;14881;48.092;11.574;2023-04-06T02:02:25;95639.75;;;-4.68;100.00
27429;BME280;14881;48.092;11.574;2023-04-06T02:04:53;95648.28;;;-4.66;100.00
27429;BME280;14881;48.092;11.574;2023-04-06T02:07:21;95645.81;;;-4.67;100.00
27429;BME280;14881;48.092;11.574;2023-04-06T02:09:50;95640.34;;;-4.66;100.00
27429;BME280;14881;48.092;11.574;2023-04-06T02:12:18;95646.03;;;-4.69;100.00
27429;BME280;14881;48.092;11.574;2023-04-06T02:14:47;95642.56;;;-4.69;100.00
27429;BME280;14881;48.092;11.574;2023-04-06T02:17:15;95638.09;;;-4.69;100.00
27429;BME280;14881;48.092;11.574;2023-04-06T02:19:43;95643.78;;;-4.72;100.00
27429;BME280;14881;48.092;11.574;2023-04-06T02:22:11;95639.88;;;-4.76;100.00
27429;BME280;14881;48.092;11.574;2023-04-06T02:24:38;95644.78;;;-4.73;100.00
27429;BME280;14881;48.092;11.574;2023-04-06T02:27:06;95643.34;;;-4.75;100.00
27429;BME280;14881;48.092;11.574;2023-04-06T02:29:34;95650.28;;;-4.74;100.00
27429;BME280;14881;48.092;11.574;2023-04-06T02:32:04;95639.09;;;-4.70;100.00
27429;BME280;14881;48.092;11.574;2023-04-06T02:34:32;95634.22;;;-4.66;100.00
27429;BME280;14881;48.092;11.574;2023-04-06T02:37:00;95637.94;;;-4.61;100.00
27429;BME280;14881;48.092;11.574;2023-04-06T02:39:28;95638.63;;;-4.52;100.00
27429;BME280;14881;48.092;11.574;2023-04-06T02:41:55;95637.63;;;-4.51;100.00
27429;BME280;14881;48.092;11.574;2023-04-06T02:44:23;95636.00;;;-4.45;100.00
27429;BME280;14881;48.092;11.574;2023-04-06T02:46:51;95638.72;;;-4.39;100.00
27429;BME280;14881;48.092;11.574;2023-04-06T02:49:20;95631.66;;;-4.25;100.00
27429;BME280;14881;48.092;11.574;2023-04-06T02:51:48;95636.59;;;-4.22;100.00
27429;BME280;14881;48.092;11.574;2023-04-06T02:54:16;95631.72;;;-4.18;100.00
27429;BME280;14881;48.092;11.574;2023-04-06T02:56:44;95631.28;;;-4.22;100.00
27429;BME280;14881;48.092;11.574;2023-04-06T02:59:12;95625.78;;;-4.21;100.00
27429;BME280;14881;48.092;11.574;2023-04-06T03:01:39;95622.56;;;-4.16;100.00
27429;BME280;14881;48.092;11.574;2023-04-06T03:04:07;95621.72;;;-4.16;100.00
27429;BME280;14881;48.092;11.574;2023-04-06T03:06:36;95623.72;;;-4.25;100.00
27429;BME280;14881;48.092;11.574;2023-04-06T03:09:05;95627.31;;;-4.33;100.00
27429;BME280;14881;48.092;11.574;2023-04-06T03:11:34;95627.53;;;-4.34;100.00
27429;BME280;14881;48.092;11.574;2023-04-06T03:14:02;95634.44;;;-4.40;100.00
27429;BME280;14881;48.092;11.574;2023-04-06T03:16:30;95631.34;;;-4.43;100.00
27429;BME280;14881;48.092;11.574;2023-04-06T03:18:57;95635.00;;;-4.44;100.00
27429;BME280;14881;48.092;11.574;2023-04-06T03:21:25;95632.53;;;-4.46;100.00
27429;BME280;14881;48.092;11.574;2023-04-06T03:23:54;95634.09;;;-4.58;100.00
27429;BME280;14881;48.092;11.574;2023-04-06T03:26:22;95636.50;;;-4.63;100.00
27429;BME280;14881;48.092;11.574;2023-04-06T03:28:50;95631.16;;;-4.70;100.00
27429;BME280;14881;48.092;11.574;2023-04-06T03:31:18;95634.63;;;-4.69;100.00
27429;BME280;14881;48.092;11.574;2023-04-06T03:33:46;95637.88;;;-4.67;100.00
27429;BME280;14881;48.092;11.574;2023-04-06T03:36:14;95630.34;;;-4.70;100.00
27429;BME280;14881;48.092;11.574;2023-04-06T03:38:42;95634.50;;;-4.82;100.00
27429;BME280;14881;48.092;11.574;2023-04-06T03:41:11;95642.84;;;-4.85;100.00
27429;BME280;14881;48.092;11.574;2023-04-06T03:43:39;95634.50;;;-4.82;100.00
27429;BME280;14881;48.092;11.574;2023-04-06T03:46:06;95637.59;;;-4.79;100.00
27429;BME280;14881;48.092;11.574;2023-04-06T03:48:34;95648.97;;;-4.85;100.00
27429;BME280;14881;48.092;11.574;2023-04-06T03:51:02;95639.13;;;-4.91;100.00
27429;BME280;14881;48.092;11.574;2023-04-06T03:53:30;95643.53;;;-4.98;100.00
27429;BME280;14881;48.092;11.574;2023-04-06T03:55:58;95651.28;;;-4.97;100.00
27429;BME280;14881;48.092;11.574;2023-04-06T03:58:31;95653.50;;;-5.00;100.00
27429;BME280;14881;48.092;11.574;2023-04-06T04:00:59;95656.09;;;-5.07;100.00
27429;BME280;14881;48.092;11.574;2023-04-06T04:03:27;95647.97;;;-5.05;100.00
27429;BME280;14881;48.092;11.574;2023-04-06T04:05:55;95654.81;;;-5.11;100.00
27429;BME280;14881;48.092;11.574;2023-04-06T04:08:23;95654.00;;;-5.11;100.00
27429;BME280;14881;48.092;11.574;2023-04-06T04:10:52;95657.66;;;-5.12;100.00
27429;BME280;14881;48.092;11.574;2023-04-06T04:13:19;95659.13;;;-5.10;100.00
27429;BME280;14881;48.092;11.574;2023-04-06T04:15:49;95664.03;;;-5.07;100.00
27429;BME280;14881;48.092;11.574;2023-04-06T04:18:17;95667.69;;;-5.08;100.00
27429;BME280;14881;48.092;11.574;2023-04-06T04:20:45;95667.69;;;-5.08;100.00
27429;BME280;14881;48.092;11.574;2023-04-06T04:23:13;95663.97;;;-5.13;100.00
27429;BME280;14881;48.092;11.574;2023-04-06T04:25:43;95658.03;;;-5.15;100.00
27429;BME280;14881;48.092;11.574;2023-04-06T04:28:11;95664.34;;;-5.16;100.00
27429;BME280;14881;48.092;11.574;2023-04-06T04:30:38;95664.09;;;-5.21;100.00
27429;BME280;14881;48.092;11.574;2023-04-06T04:33:08;95669.41;;;-5.21;100.00
27429;BME280;14881;48.092;11.574;2023-04-06T04:35:36;95670.31;;;-5.29;100.00
27429;BME280;14881;48.092;11.574;2023-04-06T04:38:04;95667.66;;;-5.29;100.00
27429;BME280;14881;48.092;11.574;2023-04-06T04:40:31;95675.63;;;-5.29;100.00
27429;BME280;14881;48.092;11.574;2023-04-06T04:42:59;95669.94;;;-5.26;100.00
27429;BME280;14881;48.092;11.574;2023-04-06T04:45:27;95673.59;;;-5.27;100.00
27429;BME280;14881;48.092;11.574;2023-04-06T04:47:55;95675.63;;;-5.29;100.00
27429;BME280;14881;48.092;11.574;2023-04-06T04:50:24;95674.78;;;-5.30;100.00
27429;BME280;14881;48.092;11.574;2023-04-06T04:52:52;95679.44;;;-5.32;100.00
27429;BME280;14881;48.092;11.574;2023-04-06T04:55:20;95683.56;;;-5.29;100.00
27429;BME280;14881;48.092;11.574;2023-04-06T04:57:48;95670.94;;;-5.27;100.00
27429;BME280;14881;48.092;11.574;2023-04-06T05:00:16;95674.69;;;-5.21;100.00
27429;BME280;14881;48.092;11.574;2023-04-06T05:02:44;95673.59;;;-5.27;100.00
27429;BME280;14881;48.092;11.574;2023-04-06T05:05:12;95674.25;;;-5.25;100.00
27429;BME280;14881;48.092;11.574;2023-04-06T05:07:41;95675.50;;;-5.21;100.00
27429;BME280;14881;48.092;11.574;2023-04-06T05:10:09;95671.09;;;-5.14;100.00
27429;BME280;14881;48.092;11.574;2023-04-06T05:12:37;95668.88;;;-5.10;100.00
27429;BME280;14881;48.092;11.574;2023-04-06T05:15:06;95673.19;;;-5.09;100.00
27429;BME280;14881;48.092;11.574;2023-04-06T05:17:34;95674.06;;;-5.02;100.00
27429;BME280;14881;48.092;11.574;2023-04-06T05:20:02;95674.38;;;-4.91;100.00
27429;BME280;14881;48.092;11.574;2023-04-06T05:22:30;95676.00;;;-4.68;100.00
27429;BME280;14881;48.092;11.574;2023-04-06T05:24:59;95676.34;;;-4.50;100.00
27429;BME280;14881;48.092;11.574;2023-04-06T05:27:27;95682.81;;;-4.31;100.00
27429;BME280;14881;48.092;11.574;2023-04-06T05:29:55;95673.34;;;-4.12;100.00
27429;BME280;14881;48.092;11.574;2023-04-06T05:32:23;95676.94;;;-3.92;100.00
27429;BME280;14881;48.092;11.574;2023-04-06T05:34:52;95673.75;;;-3.81;100.00
27429;BME280;14881;48.092;11.574;2023-04-06T05:37:19;95671.78;;;-3.66;100.00
27429;BME280;14881;48.092;11.574;2023-04-06T05:39:47;95669.53;;;-3.62;100.00
27429;BME280;14881;48.092;11.574;2023-04-06T05:42:17;95664.88;;;-3.54;100.00
27429;BME280;14881;48.092;11.574;2023-04-06T05:44:44;95675.75;;;-3.48;100.00
27429;BME280;14881;48.092;11.574;2023-04-06T05:47:12;95680.88;;;-3.40;100.00
27429;BME280;14881;48.092;11.574;2023-04-06T05:49:41;95672.13;;;-3.34;100.00
27429;BME280;14881;48.092;11.574;2023-04-06T05:52:09;95673.56;;;-3.25;100.00
27429;BME280;14881;48.092;11.574;2023-04-06T05:54:37;95674.81;;;-3.21;100.00
27429;BME280;14881;48.092;11.574;2023-04-06T05:57:05;95673.81;;;-3.13;100.00
27429;BME280;14881;48.092;11.574;2023-04-06T05:59:34;95677.28;;;-3.06;100.00
27429;BME280;14881;48.092;11.574;2023-04-06T06:02:02;95675.47;;;-2.99;100.00
27429;BME280;14881;48.092;11.574;2023-04-06T06:04:30;95667.94;;;-2.89;100.00
27429;BME280;14881;48.092;11.574;2023-04-06T06:06:58;95672.44;;;-2.76;100.00
27429;BME280;14881;48.092;11.574;2023-04-06T06:09:26;95662.44;;;-2.68;100.00
27429;BME280;14881;48.092;11.574;2023-04-06T06:11:54;95674.31;;;-2.64;100.00
27429;BME280;14881;48.092;11.574;2023-04-06T06:14:22;95672.88;;;-2.53;100.00
27429;BME280;14881;48.092;11.574;2023-04-06T06:16:51;95669.38;;;-2.40;100.00
27429;BME280;14881;48.092;11.574;2023-04-06T06:19:19;95663.66;;;-2.31;100.00
27429;BME280;14881;48.092;11.574;2023-04-06T06:21:47;95662.63;;;-2.17;100.00
27429;BME280;14881;48.092;11.574;2023-04-06T06:24:15;95663.44;;;-2.03;100.00
27429;BME280;14881;48.092;11.574;2023-04-06T06:26:43;95658.88;;;-1.89;100.00
27429;BME280;14881;48.092;11.574;2023-04-06T06:29:11;95656.81;;;-1.74;100.00
27429;BME280;14881;48.092;11.574;2023-04-06T06:31:38;95659.03;;;-1.58;100.00
27429;BME280;14881;48.092;11.574;2023-04-06T06:34:08;95663.88;;;-1.42;100.00
27429;BME280;14881;48.092;11.574;2023-04-06T06:36:36;95665.41;;;-1.21;100.00
27429;BME280;14881;48.092;11.574;2023-04-06T06:39:04;95662.00;;;-0.96;100.00
27429;BME280;14881;48.092;11.574;2023-04-06T06:41:32;95663.13;;;-0.73;100.00
27429;BME280;14881;48.092;11.574;2023-04-06T06:44:00;95656.53;;;-0.45;100.00
27429;BME280;14881;48.092;11.574;2023-04-06T06:46:28;95653.66;;;-0.19;100.00
27429;BME280;14881;48.092;11.574;2023-04-06T06:48:59;95656.09;;;0.08;100.00
27429;BME280;14881;48.092;11.574;2023-04-06T06:51:28;95651.31;;;0.34;100.00
27429;BME280;14881;48.092;11.574;2023-04-06T06:53:56;95653.72;;;0.54;100.00
27429;BME280;14881;48.092;11.574;2023-04-06T06:56:24;95647.16;;;0.87;100.00
27429;BME280;14881;48.092;11.574;2023-04-06T06:58:53;95651.44;;;1.36;100.00
27429;BME280;14881;48.092;11.574;2023-04-06T07:01:21;95651.06;;;1.86;100.00
27429;BME280;14881;48.092;11.574;2023-04-06T07:03:49;95640.25;;;2.39;100.00
27429;BME280;14881;48.092;11.574;2023-04-06T07:06:17;95643.28;;;2.83;100.00
27429;BME280;14881;48.092;11.574;2023-04-06T07:08:46;95643.28;;;3.23;100.00
27429;BME280;14881;48.092;11.574;2023-04-06T07:11:14;95640.19;;;3.59;100.00
27429;BME280;14881;48.092;11.574;2023-04-06T07:13:42;95635.06;;;3.74;100.00
27429;BME280;14881;48.092;11.574;2023-04-06T07:16:10;95645.63;;;3.81;100.00
27429;BME280;14881;48.092;11.574;2023-04-06T07:18:37;95639.38;;;3.92;100.00
27429;BME280;14881;48.092;11.574;2023-04-06T07:21:06;95642.16;;;4.14;100.00
27429;BME280;14881;48.092;11.574;2023-04-06T07:23:33;95644.63;;;4.37;100.00
27429;BME280;14881;48.092;11.574;2023-04-06T07:26:03;95640.47;;;4.46;100.00
27429;BME280;14881;48.092;11.574;2023-04-06T07:28:31;95643.38;;;4.62;100.00
27429;BME280;14881;48.092;11.574;2023-04-06T07:30:59;95646.63;;;4.64;100.00
27429;BME280;14881;48.092;11.574;2023-04-06T07:33:26;95653.25;;;4.78;100.00
27429;BME280;14881;48.092;11.574;2023-04-06T07:35:56;95650.69;;;4.66;100.00
27429;BME280;14881;48.092;11.574;2023-04-06T07:38:25;95650.56;;;4.78;100.00
27429;BME280;14881;48.092;11.574;2023-04-06T07:40:53;95648.56;;;4.90;100.00
27429;BME280;14881;48.092;11.574;2023-04-06T07:43:23;95647.00;;;4.94;100.00
27429;BME280;14881;48.092;11.574;2023-04-06T07:45:51;95644.88;;;4.96;100.00
27429;BME280;14881;48.092;11.574;2023-04-06T07:48:20;95638.94;;;5.16;100.00
27429;BME280;14881;48.092;11.574;2023-04-06T07:50:48;95641.13;;;5.46;100.00
27429;BME280;14881;48.092;11.574;2023-04-06T07:53:16;95635.88;;;5.61;98.18
27429;BME280;14881;48.092;11.574;2023-04-06T07:55:44;95638.03;;;5.59;97.57
27429;BME280;14881;48.092;11.574;2023-04-06T07:58:11;95634.75;;;5.52;93.36
27429;BME280;14881;48.092;11.574;2023-04-06T08:00:41;95636.75;;;5.67;93.56
27429;BME280;14881;48.092;11.574;2023-04-06T08:03:08;95634.38;;;5.70;88.80
27429;BME280;14881;48.092;11.574;2023-04-06T08:05:36;95630.19;;;5.84;85.54
27429;BME280;14881;48.092;11.574;2023-04-06T08:08:04;95633.91;;;6.05;83.90
27429;BME280;14881;48.092;11.574;2023-04-06T08:10:32;95635.66;;;6.26;77.93
27429;BME280;14881;48.092;11.574;2023-04-06T08:13:01;95638.03;;;6.60;76.66
27429;BME280;14881;48.092;11.574;2023-04-06T08:15:28;95633.50;;;6.71;73.55
27429;BME280;14881;48.092;11.574;2023-04-06T08:17:58;95632.22;;;6.83;76.23
27429;BME280;14881;48.092;11.574;2023-04-06T08:20:26;95638.09;;;6.70;67.35
27429;BME280;14881;48.092;11.574;2023-04-06T08:22:54;95632.75;;;6.80;68.59
27429;BME280;14881;48.092;11.574;2023-04-06T08:25:22;95627.63;;;6.84;68.13
27429;BME280;14881;48.092;11.574;2023-04-06T08:27:49;95635.25;;;6.92;60.75
27429;BME280;14881;48.092;11.574;2023-04-06T08:30:18;95633.44;;;7.18;60.27
27429;BME280;14881;48.092;11.574;2023-04-06T08:32:46;95626.50;;;7.37;64.38
27429;BME280;14881;48.092;11.574;2023-04-06T08:35:15;95622.16;;;7.46;66.38
27429;BME280;14881;48.092;11.574;2023-04-06T08:37:44;95625.72;;;7.62;63.56
27429;BME280;14881;48.092;11.574;2023-04-06T08:40:12;95634.13;;;7.71;59.61
27429;BME280;14881;48.092;11.574;2023-04-06T08:42:44;95624.66;;;7.73;58.88
27429;BME280;14881;48.092;11.574;2023-04-06T08:45:16;95626.53;;;7.67;62.86
27429;BME280;14881;48.092;11.574;2023-04-06T08:47:48;95633.31;;;7.70;61.81
27429;BME280;14881;48.092;11.574;2023-04-06T08:50:19;95629.56;;;7.76;64.90
27429;BME280;14881;48.092;11.574;2023-04-06T08:52:48;95621.41;;;7.81;58.87
27429;BME280;14881;48.092;11.574;2023-04-06T08:55:16;95619.78;;;7.65;58.16
27429;BME280;14881;48.092;11.574;2023-04-06T08:57:45;95613.28;;;7.56;58.77
27429;BME280;14881;48.092;11.574;2023-04-06T09:00:14;95618.72;;;7.71;62.45
27429;BME280;14881;48.092;11.574;2023-04-06T09:02:45;95621.47;;;7.96;63.58
27429;BME280;14881;48.092;11.574;2023-04-06T09:05:13;95609.53;;;7.82;56.85
27429;BME280;14881;48.092;11.574;2023-04-06T09:07:44;95619.81;;;8.00;57.64
27429;BME280;14881;48.092;11.574;2023-04-06T09:10:12;95611.69;;;8.21;57.87
27429;BME280;14881;48.092;11.574;2023-04-06T09:12:42;95618.75;;;8.47;57.70
27429;BME280;14881;48.092;11.574;2023-04-06T09:15:18;95620.06;;;8.55;54.77
27429;BME280;14881;48.092;11.574;2023-04-06T09:17:49;95609.53;;;8.33;52.22
27429;BME280;14881;48.092;11.574;2023-04-06T09:20:22;95612.53;;;8.47;52.21
27429;BME280;14881;48.092;11.574;2023-04-06T09:22:54;95613.31;;;8.57;57.96
27429;BME280;14881;48.092;11.574;2023-04-06T09:25:23;95618.19;;;8.50;52.69
27429;BME280;14881;48.092;11.574;2023-04-06T09:27:59;95617.13;;;8.26;52.81
27429;BME280;14881;48.092;11.574;2023-04-06T09:30:27;95619.25;;;8.49;52.90
27429;BME280;14881;48.092;11.574;2023-04-06T09:32:57;95609.16;;;8.85;51.96
27429;BME280;14881;48.092;11.574;2023-04-06T09:35:26;95608.88;;;8.87;50.27
27429;BME280;14881;48.092;11.574;2023-04-06T09:37:57;95612.94;;;8.84;50.11
27429;BME280;14881;48.092;11.574;2023-04-06T09:40:25;95617.63;;;8.63;48.67
27429;BME280;14881;48.092;11.574;2023-04-06T09:42:52;95603.28;;;8.53;51.00
27429;BME280;14881;48.092;11.574;2023-04-06T09:45:24;95605.13;;;8.67;53.12
27429;BME280;14881;48.092;11.574;2023-04-06T09:47:53;95606.53;;;8.60;49.77
27429;BME280;14881;48.092;11.574;2023-04-06T09:50:24;95608.97;;;8.61;49.40
27429;BME280;14881;48.092;11.574;2023-04-06T09:52:54;95605.09;;;8.88;49.18
27429;BME280;14881;48.092;11.574;2023-04-06T09:55:30;95605.59;;;9.00;48.58
27429;BME280;14881;48.092;11.574;2023-04-06T09:58:04;95588.38;;;10.08;49.68
27429;BME280;14881;48.092;11.574;2023-04-06T10:00:41;95596.09;;;9.96;46.11
27429;BME280;14881;48.092;11.574;2023-04-06T10:03:17;95596.75;;;9.77;45.74
27429;BME280;14881;48.092;11.574;2023-04-06T10:05:53;95589.03;;;9.95;44.87
27429;BME280;14881;48.092;11.574;2023-04-06T10:08:27;95586.69;;;10.51;44.92
27429;BME280;14881;48.092;11.574;2023-04-06T10:11:00;95583.56;;;10.63;44.01
27429;BME280;14881;48.092;11.574;2023-04-06T10:13:28;95586.00;;;10.01;43.73
27429;BME280;14881;48.092;11.574;2023-04-06T10:15:57;95585.59;;;9.45;46.47
27429;BME280;14881;48.092;11.574;2023-04-06T10:18:27;95592.28;;;9.58;46.51
27429;BME280;14881;48.092;11.574;2023-04-06T10:20:59;95590.63;;;9.18;45.11
27429;BME280;14881;48.092;11.574;2023-04-06T10:23:32;95577.00;;;9.33;49.35
27429;BME280;14881;48.092;11.574;2023-04-06T10:26:03;95582.63;;;9.36;47.59
27429;BME280;14881;48.092;11.574;2023-04-06T10:28:32;95579.44;;;9.29;47.27
27429;BME280;14881;48.092;11.574;2023-04-06T10:31:01;95580.00;;;9.21;46.25
27429;BME280;14881;48.092;11.574;2023-04-06T10:33:30;95578.16;;;9.17;46.72
27429;BME280;14881;48.092;11.574;2023-04-06T10:35:58;95573.25;;;9.19;45.33
27429;BME280;14881;48.092;11.574;2023-04-06T10:38:36;95576.38;;;9.46;45.79
27429;BME280;14881;48.092;11.574;2023-04-06T10:41:09;95570.28;;;9.64;44.00
27429;BME280;14881;48.092;11.574;2023-04-06T10:43:39;95568.09;;;10.00;44.27
27429;BME280;14881;48.092;11.574;2023-04-06T10:46:08;95569.53;;;9.88;43.63
27429;BME280;14881;48.092;11.574;2023-04-06T10:48:38;95564.47;;;10.44;43.13
27429;BME280;14881;48.092;11.574;2023-04-06T10:51:11;95556.56;;;11.38;40.74
27429;BME280;14881;48.092;11.574;2023-04-06T10:53:41;95554.66;;;11.57;40.61
27429;BME280;14881;48.092;11.574;2023-04-06T10:56:12;95555.53;;;11.52;41.92
27429;BME280;14881;48.092;11.574;2023-04-06T10:58:44;95565.00;;;10.94;40.98
27429;BME280;14881;48.092;11.574;2023-04-06T11:01:14;95556.50;;;10.53;42.12
27429;BME280;14881;48.092;11.574;2023-04-06T11:03:43;95556.28;;;10.49;41.86
27429;BME280;14881;48.092;11.574;2023-04-06T11:06:18;95562.03;;;9.80;42.19
27429;BME280;14881;48.092;11.574;2023-04-06T11:08:46;95559.16;;;9.66;43.58
27429;BME280;14881;48.092;11.574;2023-04-06T11:11:16;95561.72;;;10.15;43.28
27429;BME280;14881;48.092;11.574;2023-04-06T11:13:48;95555.41;;;11.01;42.92
27429;BME280;14881;48.092;11.574;2023-04-06T11:16:17;95543.63;;;11.48;43.90
27429;BME280;14881;48.092;11.574;2023-04-06T11:18:50;95541.94;;;11.71;40.09
27429;BME280;14881;48.092;11.574;2023-04-06T11:21:19;95534.34;;;11.49;40.42
27429;BME280;14881;48.092;11.574;2023-04-06T11:23:47;95534.72;;;11.62;41.71
27429;BME280;14881;48.092;11.574;2023-04-06T11:26:16;95538.41;;;11.33;41.76
27429;BME280;14881;48.092;11.574;2023-04-06T11:28:44;95526.53;;;11.62;43.03
27429;BME280;14881;48.092;11.574;2023-04-06T11:31:12;95526.13;;;12.38;40.28
27429;BME280;14881;48.092;11.574;2023-04-06T11:33:40;95516.94;;;12.48;39.35
27429;BME280;14881;48.092;11.574;2023-04-06T11:36:08;95531.94;;;12.32;38.19
27429;BME280;14881;48.092;11.574;2023-04-06T11:38:39;95526.25;;;11.44;39.30
27429;BME280;14881;48.092;11.574;2023-04-06T11:41:06;95525.50;;;11.01;41.87
27429;BME280;14881;48.092;11.574;2023-04-06T11:43:36;95524.41;;;10.78;41.98
27429;BME280;14881;48.092;11.574;2023-04-06T11:46:04;95520.69;;;10.51;42.02
27429;BME280;14881;48.092;11.574;2023-04-06T11:48:43;95519.09;;;10.21;44.59
27429;BME280;14881;48.092;11.574;2023-04-06T11:51:12;95516.22;;;10.60;44.97
27429;BME280;14881;48.092;11.574;2023-04-06T11:53:43;95514.25;;;10.65;42.79
27429;BME280;14881;48.092;11.574;2023-04-06T11:56:23;95513.22;;;10.61;42.20
27429;BME280;14881;48.092;11.574;2023-04-06T11:58:53;95506.00;;;10.23;42.71
27429;BME280;14881;48.092;11.574;2023-04-06T12:01:21;95512.72;;;10.01;43.40
27429;BME280;14881;48.092;11.574;2023-04-06T12:03:50;95511.00;;;9.82;43.48
27429;BME280;14881;48.092;11.574;2023-04-06T12:06:18;95511.63;;;10.02;43.45
27429;BME280;14881;48.092;11.574;2023-04-06T12:08:46;95517.66;;;10.76;43.55
27429;BME280;14881;48.092;11.574;2023-04-06T12:11:14;95514.28;;;11.08;40.57
27429;BME280;14881;48.092;11.574;2023-04-06T12:13:42;95500.09;;;11.30;43.26
27429;BME280;14881;48.092;11.574;2023-04-06T12:16:11;95505.59;;;11.81;40.86
27429;BME280;14881;48.092;11.574;2023-04-06T12:18:39;95501.31;;;11.94;40.67
27429;BME280;14881;48.092;11.574;2023-04-06T12:21:07;95494.34;;;12.75;39.35
27429;BME280;14881;48.092;11.574;2023-04-06T12:23:35;95490.66;;;13.34;39.05
27429;BME280;14881;48.092;11.574;2023-04-06T12:26:03;95492.31;;;13.57;36.79
27429;BME280;14881;48.092;11.574;2023-04-06T12:28:38;95483.63;;;13.78;36.01
27429;BME280;14881;48.092;11.574;2023-04-06T12:31:15;95484.88;;;13.49;35.84
27429;BME280;14881;48.092;11.574;2023-04-06T12:33:46;95485.94;;;13.26;36.69
27429;BME280;14881;48.092;11.574;2023-04-06T12:36:15;95489.06;;;13.19;36.11
27429;BME280;14881;48.092;11.574;2023-04-06T12:38:46;95476.03;;;13.30;38.32
27429;BME280;14881;48.092;11.574;2023-04-06T12:41:14;95478.16;;;13.55;37.63
27429;BME280;14881;48.092;11.574;2023-04-06T12:43:43;95460.84;;;12.74;36.69
27429;BME280;14881;48.092;11.574;2023-04-06T12:46:11;95478.31;;;12.46;38.12
27429;BME280;14881;48.092;11.574;2023-04-06T12:48:41;95472.34;;;12.44;36.99
27429;BME280;14881;48.092;11.574;2023-04-06T12:51:09;95469.28;;;13.14;37.28
27429;BME280;14881;48.092;11.574;2023-04-06T12:53:37;95469.09;;;13.91;38.67
27429;BME280;14881;48.092;11.574;2023-04-06T12:56:11;95462.59;;;14.32;35.49